Time;durP1;ratioP1;P1;durP2;ratioP2;P2;SDS_P1;SDS_P2;PMS_P1;PMS_P2;Temp;Humidity;BMP_temperature;BMP_pressure;BME280_temperature;BME280_humidity;BME280_pressure;Samples;Min_cycle;Max_cycle;Signal;HPM_P1;HPM_P2
2023/05/30 00:02:12;;;;;;;;;6.00;4.33;;;;;18.73;43.71;101737.66;5058753;28;45469;-49
2023/05/30 00:04:39;;;;;;;;;6.00;6.00;;;;;18.70;44.00;101738.84;5057004;28;46616;-49
2023/05/30 00:07:05;;;;;;;;;3.67;3.67;;;;;18.64;43.72;101740.38;5058044;28;45407;-49
2023/05/30 00:09:31;;;;;;;;;5.00;4.00;;;;;18.65;43.66;101746.59;5058151;28;45553;-45
2023/05/30 00:11:57;;;;;;;;;4.33;4.00;;;;;18.61;43.69;101746.09;5058145;28;45307;-43
2023/05/30 00:14:23;;;;;;;;;6.00;4.00;;;;;18.62;43.70;101746.94;5058165;28;46361;-46
2023/05/30 00:16:48;;;;;;;;;3.67;3.67;;;;;18.57;43.55;101744.78;5058022;28;45328;-49
2023/05/30 00:19:14;;;;;;;;;5.00;4.00;;;;;18.56;43.37;101747.66;5057855;28;45730;-47
2023/05/30 00:21:39;;;;;;;;;71.25;54.00;;;;;18.54;43.50;101749.66;5058281;28;45391;-47
2023/05/30 00:24:05;;;;;;;;;38.00;31.33;;;;;18.52;43.35;101754.41;5056253;28;46907;-48
2023/05/30 00:26:31;;;;;;;;;12.00;5.33;;;;;18.48;43.32;101751.22;5057533;28;45396;-44
2023/05/30 00:28:57;;;;;;;;;5.33;4.33;;;;;18.48;43.25;101750.38;5058087;28;45590;-45
2023/05/30 00:31:23;;;;;;;;;9.67;5.33;;;;;18.46;43.34;101747.88;5058221;28;45364;-48
2023/05/30 00:33:48;;;;;;;;;3.00;3.00;;;;;18.45;43.10;101751.56;5056866;28;45994;-45
2023/05/30 00:36:13;;;;;;;;;5.33;2.67;;;;;18.41;43.22;101747.53;5057524;28;45471;-49
2023/05/30 00:38:40;;;;;;;;;7.67;4.00;;;;;18.42;43.10;101757.31;5057870;28;45408;-47
2023/05/30 00:41:06;;;;;;;;;3.67;3.00;;;;;18.40;43.05;101752.06;5058068;28;45544;-43
2023/05/30 00:43:32;;;;;;;;;5.67;4.00;;;;;18.37;43.03;101746.19;5057539;28;45360;-47
2023/05/30 00:45:57;;;;;;;;;9.00;5.00;;;;;18.28;43.13;101734.59;5057839;28;45350;-43
2023/05/30 00:48:24;;;;;;;;;5.00;5.00;;;;;18.26;43.20;101738.50;5057828;28;45430;-46
2023/05/30 00:50:51;;;;;;;;;3.00;3.00;;;;;18.35;43.05;101756.31;5057877;28;45407;-47
2023/05/30 00:53:19;;;;;;;;;5.00;5.00;;;;;18.30;43.12;101753.31;5057094;28;45507;-47
2023/05/30 00:55:45;;;;;;;;;5.00;4.00;;;;;18.32;43.05;101754.78;5057423;28;45421;-45
2023/05/30 00:58:11;;;;;;;;;6.67;4.67;;;;;18.19;43.06;101727.56;5057512;28;45419;-46
2023/05/30 01:00:38;;;;;;;;;3.00;3.00;;;;;18.33;43.20;101747.53;5056570;28;45290;-44
2023/05/30 01:03:04;;;;;;;;;6.67;4.00;;;;;18.25;43.08;101743.06;5057140;28;46247;-42
2023/05/30 01:05:31;;;;;;;;;6.67;4.00;;;;;18.29;43.16;101757.03;5057037;28;45486;-48
2023/05/30 01:07:56;;;;;;;;;4.00;4.00;;;;;18.26;43.06;101754.66;5057317;28;45388;-47
2023/05/30 01:10:23;;;;;;;;;8.00;3.00;;;;;18.23;43.23;101752.31;5057236;28;45490;-48
2023/05/30 01:13:25;;;;;;;;;5.33;4.00;;;;;18.18;43.15;101758.22;5056979;28;45286;-50
2023/05/30 01:16:03;;;;;;;;;6.00;4.00;;;;;18.15;43.33;101745.91;5056859;28;46026;-43
2023/05/30 01:18:39;;;;;;;;;5.00;4.00;;;;;18.13;43.25;101755.19;5057223;28;45684;-49
2023/05/30 01:21:10;;;;;;;;;4.00;4.00;;;;;18.08;43.39;101754.88;5057526;28;45178;-42
2023/05/30 01:23:49;;;;;;;;;6.00;3.33;;;;;18.03;43.41;101755.38;5056695;28;46312;-46
2023/05/30 01:26:42;;;;;;;;;5.33;5.00;;;;;17.99;43.49;101750.50;5056880;28;45427;-43
2023/05/30 01:29:17;;;;;;;;;3.00;3.00;;;;;17.94;43.85;101756.41;5057134;28;45384;-43
2023/05/30 01:31:44;;;;;;;;;6.00;5.00;;;;;17.88;43.70;101751.72;5056420;28;45344;-44
2023/05/30 01:34:11;;;;;;;;;3.67;3.67;;;;;17.84;44.01;101766.50;5056590;28;47107;-49
2023/05/30 01:36:36;;;;;;;;;3.00;2.00;;;;;17.81;44.09;101761.47;5056716;28;45245;-44
2023/05/30 01:39:02;;;;;;;;;5.67;5.00;;;;;17.76;44.23;101756.59;5056541;28;45880;-45
2023/05/30 01:41:36;;;;;;;;;5.67;3.67;;;;;17.75;44.08;101754.91;5056765;28;45396;-44
2023/05/30 01:44:09;;;;;;;;;5.00;4.00;;;;;17.73;44.15;101758.72;5056418;28;46063;-46
2023/05/30 01:46:45;;;;;;;;;8.00;6.00;;;;;17.62;44.16;101752.69;5056824;28;45364;-46
2023/05/30 01:49:17;;;;;;;;;4.33;3.33;;;;;17.24;44.36;101692.34;5056457;28;45449;-43
2023/05/30 01:51:49;;;;;;;;;4.00;3.67;;;;;17.62;44.20;101758.06;5056648;28;45458;-48
2023/05/30 01:54:17;;;;;;;;;4.33;4.00;;;;;17.59;44.63;101763.78;5056350;28;46145;-44
2023/05/30 01:56:47;;;;;;;;;4.67;3.67;;;;;17.56;44.66;101765.97;5056414;28;45407;-45
2023/05/30 01:59:15;;;;;;;;;3.00;3.00;;;;;17.54;44.93;101774.22;5056638;28;45413;-47
2023/05/30 02:01:41;;;;;;;;;13.33;3.00;;;;;17.42;44.96;101743.28;5056597;28;45442;-46
2023/05/30 02:04:07;;;;;;;;;5.33;5.00;;;;;17.48;45.09;101756.03;5056175;28;46454;-45
2023/05/30 02:06:32;;;;;;;;;3.33;3.33;;;;;17.49;44.99;101767.63;5056228;28;45352;-48
2023/05/30 02:08:58;;;;;;;;;5.67;4.00;;;;;17.46;45.18;101763.44;5056578;28;45765;-45
2023/05/30 02:11:23;;;;;;;;;6.00;5.00;;;;;17.43;45.12;101769.16;5056549;28;45387;-47
2023/05/30 02:13:48;;;;;;;;;5.67;4.33;;;;;17.43;45.28;101785.28;5054650;28;47052;-46
2023/05/30 02:16:15;;;;;;;;;5.33;5.00;;;;;17.41;45.06;101776.56;5056206;28;45447;-44
2023/05/30 02:18:41;;;;;;;;;9.00;4.00;;;;;17.41;45.02;101772.03;5056120;28;45277;-49
2023/05/30 02:21:07;;;;;;;;;5.00;5.00;;;;;17.40;45.15;101777.53;5056237;28;45389;-47
2023/05/30 02:23:33;;;;;;;;;3.00;3.00;;;;;17.35;45.08;101769.97;5055748;28;46211;-47
2023/05/30 02:25:59;;;;;;;;;6.33;4.33;;;;;17.37;45.36;101772.53;5055840;28;45490;-45
2023/05/30 02:28:24;;;;;;;;;6.00;4.00;;;;;17.36;45.34;101773.50;5056318;28;45484;-44
2023/05/30 02:30:49;;;;;;;;;6.00;4.33;;;;;17.33;45.53;101763.94;5056307;28;45423;-48
2023/05/30 02:33:15;;;;;;;;;4.67;2.33;;;;;17.31;45.50;101765.09;5055893;28;47067;-45
2023/05/30 02:35:40;;;;;;;;;5.00;3.00;;;;;17.27;45.50;101758.38;5055727;28;45433;-47
2023/05/30 02:38:05;;;;;;;;;6.00;2.33;;;;;17.20;45.39;101761.72;5055912;28;45325;-47
2023/05/30 02:40:30;;;;;;;;;4.00;2.67;;;;;17.16;45.77;101760.38;5056025;28;45417;-47
2023/05/30 02:42:56;;;;;;;;;9.67;6.00;;;;;17.14;46.09;101770.44;5056037;28;45380;-45
2023/05/30 02:45:21;;;;;;;;;6.00;5.00;;;;;17.09;45.89;101759.34;5055827;28;45475;-49
2023/05/30 02:47:47;;;;;;;;;3.00;3.00;;;;;17.07;45.79;101755.16;5056083;28;45328;-46
2023/05/30 02:50:12;;;;;;;;;6.00;4.33;;;;;17.06;45.63;101767.72;5056103;28;45429;-44
2023/05/30 02:52:37;;;;;;;;;3.67;3.00;;;;;17.04;45.86;101777.00;5055621;28;46154;-44
2023/05/30 02:55:04;;;;;;;;;8.33;4.33;;;;;17.01;46.25;101772.78;5055476;28;45365;-47
2023/05/30 02:57:32;;;;;;;;;4.33;2.33;;;;;16.98;46.20;101770.44;5057439;28;45336;-48
2023/05/30 02:59:58;;;;;;;;;4.67;3.00;;;;;16.97;46.37;101774.09;5059456;28;45311;-46
2023/05/30 03:02:23;;;;;;;;;4.00;3.00;;;;;16.95;46.31;101774.28;5059399;28;46588;-47
2023/05/30 03:04:48;;;;;;;;;6.00;4.00;;;;;16.91;46.13;101772.91;5059020;28;45341;-45
2023/05/30 03:07:17;;;;;;;;;4.67;3.00;;;;;16.89;46.35;101782.13;5059192;28;45424;-46
2023/05/30 03:09:43;;;;;;;;;3.00;3.00;;;;;16.86;46.22;101774.41;5057944;28;45506;-48
2023/05/30 03:12:09;;;;;;;;;6.00;3.00;;;;;16.85;46.73;101772.72;5058466;28;47239;-49
2023/05/30 03:14:34;;;;;;;;;4.67;4.67;;;;;16.83;46.51;101770.19;5058921;28;45329;-50
2023/05/30 03:17:00;;;;;;;;;4.33;3.33;;;;;16.80;46.43;101781.25;5059109;28;45321;-44
2023/05/30 03:19:25;;;;;;;;;7.67;6.33;;;;;16.78;46.75;101780.59;5059310;28;45715;-45
2023/05/30 03:21:51;;;;;;;;;4.00;2.00;;;;;16.75;46.52;101780.91;5058897;28;45681;-44
2023/05/30 03:24:16;;;;;;;;;6.00;3.00;;;;;16.67;46.66;101781.69;5059046;28;45684;-47
2023/05/30 03:26:42;;;;;;;;;3.67;3.00;;;;;16.70;46.59;101786.75;5058801;28;45401;-47
2023/05/30 03:29:08;;;;;;;;;5.00;3.00;;;;;16.69;46.71;101793.13;5058991;28;45282;-48
2023/05/30 03:31:35;;;;;;;;;3.00;3.00;;;;;16.67;46.83;101791.59;5057138;28;45377;-42
2023/05/30 03:34:01;;;;;;;;;6.67;4.67;;;;;16.63;46.64;101790.22;5058380;28;45411;-46
2023/05/30 03:36:27;;;;;;;;;5.00;4.00;;;;;16.59;46.85;101792.38;5058691;28;45521;-46
2023/05/30 03:38:53;;;;;;;;;5.33;5.33;;;;;16.51;47.01;101778.91;5058771;28;45341;-47
2023/05/30 03:41:19;;;;;;;;;8.67;4.00;;;;;16.59;46.88;101795.06;5058415;28;46099;-48
2023/05/30 03:43:45;;;;;;;;;5.00;5.00;;;;;16.58;46.80;101803.31;5058276;28;45314;-48
2023/05/30 03:46:10;;;;;;;;;4.33;4.33;;;;;16.56;46.80;101802.59;5058418;28;45317;-46
2023/05/30 03:48:35;;;;;;;;;5.00;3.00;;;;;16.55;46.84;101806.31;5058702;28;45465;-46
2023/05/30 03:51:01;;;;;;;;;4.00;4.00;;;;;16.45;47.21;101791.16;5058292;28;46279;-46
2023/05/30 03:53:26;;;;;;;;;5.33;4.33;;;;;16.50;46.80;101795.22;5058515;28;45415;-46
2023/05/30 03:55:51;;;;;;;;;4.67;4.67;;;;;16.49;46.69;101799.75;5058074;28;45293;-45
2023/05/30 03:58:17;;;;;;;;;5.00;3.00;;;;;16.47;47.02;101804.41;5058487;28;45380;-44
2023/05/30 04:00:42;;;;;;;;;4.00;4.00;;;;;16.46;46.77;101811.63;5057972;28;47096;-43
2023/05/30 04:03:07;;;;;;;;;3.00;3.00;;;;;16.45;47.24;101804.59;5058420;28;45380;-49
2023/05/30 04:05:32;;;;;;;;;6.33;3.33;;;;;16.45;47.27;101806.44;5058255;28;45319;-48
2023/05/30 04:07:58;;;;;;;;;5.00;4.00;;;;;16.45;47.19;101804.59;5058472;28;45352;-47
2023/05/30 04:10:23;;;;;;;;;3.67;3.67;;;;;16.42;46.99;101799.53;5058021;28;45155;-43
2023/05/30 04:12:49;;;;;;;;;4.67;3.00;;;;;16.42;47.07;101804.06;5057786;28;45433;-45
2023/05/30 04:15:17;;;;;;;;;4.00;3.67;;;;;16.40;47.24;101806.06;5058451;28;45393;-45
2023/05/30 04:17:42;;;;;;;;;6.33;3.00;;;;;16.39;46.92;101809.72;5058259;28;45501;-48
2023/05/30 04:20:12;;;;;;;;;3.00;3.00;;;;;16.31;47.19;101802.50;5057670;28;46453;-46
2023/05/30 04:22:37;;;;;;;;;3.67;3.33;;;;;16.38;47.07;101802.69;5057938;28;45766;-47
2023/05/30 04:25:04;;;;;;;;;6.33;4.00;;;;;16.37;47.15;101804.53;5058015;28;45389;-47
2023/05/30 04:27:31;;;;;;;;;4.00;2.33;;;;;16.36;47.51;101810.06;5058123;28;45439;-45
2023/05/30 04:29:57;;;;;;;;;5.33;3.00;;;;;16.36;46.96;101810.91;5057670;28;46156;-48
2023/05/30 04:32:22;;;;;;;;;7.67;4.00;;;;;16.35;47.11;101808.38;5057578;28;45409;-42
2023/05/30 04:34:48;;;;;;;;;6.33;3.00;;;;;16.33;46.99;101821.13;5057895;28;45377;-45
2023/05/30 04:37:17;;;;;;;;;4.33;1.33;;;;;16.33;47.32;101819.28;5058298;28;45319;-43
2023/05/30 04:39:44;;;;;;;;;3.67;3.00;;;;;16.33;47.25;101831.88;5057257;27;46192;-47
2023/05/30 04:42:09;;;;;;;;;6.67;5.00;;;;;16.35;47.33;101843.28;5056141;28;45794;-42
2023/05/30 04:44:37;;;;;;;;;4.00;4.00;;;;;16.34;47.03;101839.75;5057565;28;45373;-44
2023/05/30 04:47:05;;;;;;;;;4.00;3.00;;;;;16.35;46.85;101844.16;5057853;28;45754;-46
2023/05/30 04:49:30;;;;;;;;;4.00;3.00;;;;;16.32;47.07;101851.66;5057462;28;45779;-45
2023/05/30 04:51:56;;;;;;;;;4.00;3.00;;;;;16.29;46.75;101844.75;5057547;28;45262;-49
2023/05/30 04:54:22;;;;;;;;;9.67;2.00;;;;;16.25;47.28;101846.06;5057542;28;45315;-48
2023/05/30 04:56:47;;;;;;;;;2.00;1.00;;;;;16.27;47.11;101848.63;5057702;28;45631;-44
2023/05/30 04:59:12;;;;;;;;;3.33;3.00;;;;;16.28;47.28;101853.81;5057234;28;45400;-45
2023/05/30 05:01:37;;;;;;;;;3.00;3.00;;;;;16.28;46.98;101837.72;5057312;28;45368;-43
2023/05/30 05:04:03;;;;;;;;;80.75;57.00;;;;;16.28;47.03;101848.44;5057243;28;45372;-44
2023/05/30 05:06:28;;;;;;;;;30.33;24.33;;;;;16.26;46.99;101842.38;5056248;28;45336;-47
2023/05/30 05:08:53;;;;;;;;;5.67;4.00;;;;;16.29;47.04;101844.75;5057095;28;45982;-44
2023/05/30 05:11:19;;;;;;;;;8.33;3.67;;;;;16.29;46.88;101847.44;5056983;28;45394;-45
2023/05/30 05:13:44;;;;;;;;;3.33;3.00;;;;;16.21;46.99;101844.69;5072566;28;45826;-47
2023/05/30 05:16:10;;;;;;;;;6.33;4.00;;;;;16.27;46.88;101856.66;5057221;28;45593;-45
2023/05/30 05:18:35;;;;;;;;;4.33;4.00;;;;;16.14;46.91;101832.91;5056205;28;46137;-47
2023/05/30 05:21:00;;;;;;;;;8.33;4.00;;;;;16.24;47.07;101859.66;5056879;28;45505;-42
2023/05/30 05:23:28;;;;;;;;;6.00;3.00;;;;;16.21;47.04;101856.28;5057119;28;45673;-44
2023/05/30 05:25:53;;;;;;;;;6.00;4.00;;;;;16.07;47.06;101827.31;5056987;28;45786;-42
2023/05/30 05:28:19;;;;;;;;;5.33;4.00;;;;;16.21;47.33;101853.59;5056416;28;46214;-44
2023/05/30 05:30:48;;;;;;;;;3.00;2.33;;;;;16.15;46.78;101845.34;5056630;28;45344;-46
2023/05/30 05:33:15;;;;;;;;;9.00;6.33;;;;;16.20;47.14;101859.97;5056629;28;45500;-45
2023/05/30 05:35:40;;;;;;;;;5.00;3.33;;;;;16.16;47.25;101853.22;5056724;28;45388;-43
2023/05/30 05:38:06;;;;;;;;;7.33;3.00;;;;;16.24;46.83;101865.03;5056601;28;46982;-46
2023/05/30 05:40:31;;;;;;;;;3.00;3.00;;;;;16.22;46.61;101862.47;5056645;28;45481;-42
2023/05/30 05:42:56;;;;;;;;;9.33;3.00;;;;;16.21;47.00;101861.66;5056733;28;45690;-45
2023/05/30 05:45:22;;;;;;;;;4.67;2.67;;;;;16.23;47.18;101857.97;5056879;28;45336;-46
2023/05/30 05:47:47;;;;;;;;;4.00;4.00;;;;;16.20;46.89;101851.06;5056501;28;45887;-42
2023/05/30 05:50:12;;;;;;;;;4.00;4.00;;;;;16.30;46.99;101859.88;5056678;28;45327;-44
2023/05/30 05:52:38;;;;;;;;;9.33;5.00;;;;;16.34;47.07;101868.44;5056520;28;45312;-46
2023/05/30 05:55:04;;;;;;;;;3.00;3.00;;;;;16.38;46.58;101867.13;5056719;28;45381;-45
2023/05/30 05:57:30;;;;;;;;;3.67;3.00;;;;;16.40;46.69;101863.31;5056625;28;46053;-44
2023/05/30 05:59:56;;;;;;;;;4.00;4.00;;;;;16.44;46.87;101864.69;5056466;28;45343;-47
2023/05/30 06:02:21;;;;;;;;;5.67;2.67;;;;;16.44;46.97;101863.84;5056389;28;45746;-45
2023/05/30 06:04:47;;;;;;;;;9.67;3.00;;;;;16.51;46.75;101870.25;5056818;28;45329;-47
2023/05/30 06:07:13;;;;;;;;;4.33;3.67;;;;;16.54;46.78;101867.25;5056155;28;46522;-46
2023/05/30 06:09:38;;;;;;;;;6.00;3.33;;;;;16.61;46.43;101868.31;5056391;28;45292;-48
2023/05/30 06:12:05;;;;;;;;;9.33;3.67;;;;;16.67;46.50;101874.88;5056034;28;45341;-46
2023/05/30 06:14:30;;;;;;;;;7.00;4.00;;;;;16.58;46.20;101854.34;5056619;28;45423;-45
2023/05/30 06:16:55;;;;;;;;;3.33;3.33;;;;;16.66;46.33;101865.97;5056033;28;46027;-46
2023/05/30 06:19:21;;;;;;;;;3.00;3.00;;;;;16.78;46.34;101873.81;5056625;28;45339;-45
2023/05/30 06:21:46;;;;;;;;;6.00;3.00;;;;;16.84;45.84;101887.44;5056167;28;45407;-47
2023/05/30 06:24:11;;;;;;;;;4.00;2.33;;;;;16.93;46.09;101872.19;5056455;28;45429;-47
2023/05/30 06:26:37;;;;;;;;;8.00;5.00;;;;;17.04;45.87;101877.28;5055953;28;46259;-42
2023/05/30 06:29:02;;;;;;;;;3.67;3.67;;;;;17.11;45.52;101870.28;5055879;28;45482;-45
2023/05/30 06:31:27;;;;;;;;;5.00;4.00;;;;;17.25;45.46;101871.50;5055274;28;45465;-48
2023/05/30 06:33:53;;;;;;;;;9.33;4.67;;;;;17.37;45.14;101874.72;5056273;28;45311;-45
2023/05/30 06:36:18;;;;;;;;;5.00;3.00;;;;;17.50;44.94;101864.34;5055885;28;47220;-44
2023/05/30 06:38:44;;;;;;;;;3.00;3.00;;;;;17.70;44.41;101851.44;5056102;28;45480;-42
2023/05/30 06:41:09;;;;;;;;;5.67;3.33;;;;;18.63;43.20;101862.66;5055898;28;46250;-43
2023/05/30 06:43:34;;;;;;;;;7.00;4.00;;;;;19.32;41.90;101859.38;5055826;28;45261;-46
2023/05/30 06:46:00;;;;;;;;;6.67;5.00;;;;;20.07;40.39;101858.72;5055477;28;46417;-47
2023/05/30 06:48:25;;;;;;;;;8.33;4.67;;;;;20.64;39.13;101869.00;5056058;28;45499;-45
2023/05/30 06:50:51;;;;;;;;;7.00;2.00;;;;;21.66;37.76;101864.50;5055797;28;45363;-42
2023/05/30 06:53:16;;;;;;;;;6.00;3.33;;;;;23.13;36.16;101859.16;5055839;28;45386;-48
2023/05/30 06:55:41;;;;;;;;;5.33;4.67;;;;;24.52;34.00;101865.84;5055339;28;46114;-48
2023/05/30 06:58:07;;;;;;;;;9.00;6.50;;;;;25.57;31.94;101867.34;5055371;28;45321;-47
2023/05/30 07:00:32;;;;;;;;;8.00;6.25;;;;;26.46;31.12;101870.06;5055912;28;45419;-46
2023/05/30 07:03:00;;;;;;;;;4.25;4.25;;;;;27.03;30.08;101857.88;5055979;28;45202;-47
2023/05/30 07:05:25;;;;;;;;;7.25;3.75;;;;;27.59;28.96;101864.91;5055444;28;46450;-47
2023/05/30 07:07:50;;;;;;;;;9.00;8.50;;;;;28.14;28.64;101866.59;5055367;28;45387;-47
2023/05/30 07:10:16;;;;;;;;;18.00;15.25;;;;;28.53;27.45;101856.88;5055444;28;45341;-47
2023/05/30 07:12:41;;;;;;;;;4.50;3.50;;;;;28.92;26.39;101865.38;5055142;28;45470;-48
2023/05/30 07:15:07;;;;;;;;;5.00;5.00;;;;;29.26;26.40;101866.38;5055351;28;46066;-47
2023/05/30 07:17:33;;;;;;;;;3.00;2.60;;;;;29.69;25.99;101861.44;5055137;28;45876;-42
2023/05/30 07:19:58;;;;;;;;;5.00;3.50;;;;;29.97;25.80;101864.13;5055913;28;45376;-45
2023/05/30 07:22:24;;;;;;;;;6.00;4.75;;;;;30.11;25.79;101848.16;5055781;28;45422;-45
2023/05/30 07:24:49;;;;;;;;;3.25;3.25;;;;;30.31;24.98;101853.16;5055049;28;46286;-48
2023/05/30 07:27:14;;;;;;;;;4.00;4.00;;;;;30.58;25.02;101850.50;5055305;28;45723;-44
2023/05/30 07:29:40;;;;;;;;;4.75;4.00;;;;;30.85;24.27;101860.81;5055105;28;45367;-47
2023/05/30 07:32:06;;;;;;;;;8.00;5.00;;;;;30.87;24.89;101864.09;5055721;28;45320;-43
2023/05/30 07:34:31;;;;;;;;;4.25;4.00;;;;;31.14;23.86;101865.00;5055276;28;47461;-48
2023/05/30 07:36:57;;;;;;;;;5.75;4.25;;;;;31.53;23.73;101856.66;5055186;28;45370;-44
2023/05/30 07:39:23;;;;;;;;;4.00;4.00;;;;;31.94;22.98;101857.00;5055245;28;45332;-44
2023/05/30 07:41:48;;;;;;;;;3.20;2.20;;;;;32.28;23.04;101857.56;5055426;28;45388;-46
2023/05/30 07:44:14;;;;;;;;;5.75;3.75;;;;;32.52;23.11;101855.25;5058368;28;46123;-46
2023/05/30 07:46:39;;;;;;;;;5.25;3.00;;;;;32.47;22.91;101856.03;5058547;28;45394;-48
2023/05/30 07:49:05;;;;;;;;;7.25;3.00;;;;;32.33;22.75;101852.09;5058714;28;45474;-45
2023/05/30 07:51:31;;;;;;;;;8.25;5.50;;;;;32.20;23.01;101858.06;5058680;28;45343;-45
2023/05/30 07:53:56;;;;;;;;;6.20;2.80;;;;;32.63;22.78;101859.72;5058321;28;46949;-42
2023/05/30 07:56:22;;;;;;;;;5.25;4.00;;;;;33.07;22.16;101856.59;5058322;28;45314;-42
2023/05/30 07:58:47;;;;;;;;;8.00;5.00;;;;;33.43;21.49;101862.22;5058478;28;45264;-40
2023/05/30 08:01:13;;;;;;;;;4.00;3.00;;;;;33.87;21.60;101861.72;5058767;28;45400;-45
2023/05/30 08:03:38;;;;;;;;;3.50;3.00;;;;;34.19;21.33;101873.34;5058180;28;46116;-43
2023/05/30 08:06:04;;;;;;;;;5.50;4.50;;;;;34.50;20.40;101867.78;5058181;28;45462;-41
2023/05/30 08:08:29;;;;;;;;;2.25;2.25;;;;;34.74;20.90;101870.75;5058441;28;45382;-40
2023/05/30 08:10:55;;;;;;;;;5.00;4.00;;;;;34.86;20.30;101876.78;5058433;28;45869;-45
2023/05/30 08:13:26;;;;;;;;;5.25;3.00;;;;;34.93;21.31;101876.47;5057563;28;45673;-45
2023/05/30 08:15:52;;;;;;;;;7.40;4.60;;;;;34.87;20.03;101874.84;5057762;28;45343;-42
2023/05/30 08:18:17;;;;;;;;;6.00;6.00;;;;;34.96;20.26;101871.19;5058390;28;45386;-44
2023/05/30 08:20:43;;;;;;;;;13.50;11.25;;;;;35.07;20.13;101863.72;5058125;28;45452;-46
2023/05/30 08:23:09;;;;;;;;;5.00;4.00;;;;;35.07;20.08;101879.50;5057923;28;46017;-45
2023/05/30 08:25:36;;;;;;;;;5.60;5.20;;;;;35.17;20.37;101879.41;5057795;28;45411;-47
2023/05/30 08:28:02;;;;;;;;;6.60;3.40;;;;;35.12;20.61;101876.69;5057792;28;45416;-44
2023/05/30 08:30:28;;;;;;;;;2.80;2.20;;;;;34.78;20.53;101854.44;5058155;28;45344;-46
2023/05/30 08:32:54;;;;;;;;;5.25;4.75;;;;;34.54;20.84;101871.63;5057564;28;46083;-42
2023/05/30 08:35:20;;;;;;;;;4.00;3.80;;;;;34.61;20.90;101874.94;5057800;28;45400;-43
2023/05/30 08:37:45;;;;;;;;;3.00;3.00;;;;;34.48;20.33;101870.00;5057738;28;45344;-44
2023/05/30 08:40:12;;;;;;;;;5.75;3.50;;;;;34.71;21.07;101872.13;5057939;28;45389;-42
2023/05/30 08:42:38;;;;;;;;;5.20;3.60;;;;;34.73;20.34;101877.38;5057374;28;46349;-41
2023/05/30 08:45:05;;;;;;;;;6.20;3.60;;;;;35.08;20.68;101870.88;5055986;28;45472;-42
2023/05/30 08:47:31;;;;;;;;;9.20;4.00;;;;;35.00;20.34;101872.31;5057446;28;45277;-42
2023/05/30 08:50:01;;;;;;;;;4.00;3.60;;;;;35.03;20.53;101876.47;5057682;28;45418;-41
2023/05/30 08:52:28;;;;;;;;;6.00;4.80;;;;;35.48;20.21;101863.47;5057394;28;46544;-41
2023/05/30 08:55:01;;;;;;;;;3.20;2.80;;;;;35.95;20.00;101857.28;5056549;28;45531;-41
2023/05/30 08:57:34;;;;;;;;;4.00;3.20;;;;;36.51;19.59;101860.66;5057472;28;45332;-41
2023/05/30 09:00:03;;;;;;;;;6.20;3.20;;;;;36.69;19.11;101855.16;5057563;28;45472;-42
2023/05/30 09:02:29;;;;;;;;;5.00;3.40;;;;;36.79;19.61;101851.44;5057235;28;46737;-42
2023/05/30 09:04:57;;;;;;;;;6.75;5.00;;;;;37.00;19.06;101851.19;5056989;28;45417;-43
2023/05/30 09:07:24;;;;;;;;;4.00;4.00;;;;;37.16;19.21;101852.63;5057430;28;45274;-48
2023/05/30 09:09:50;;;;;;;;;4.80;3.60;;;;;37.03;18.76;101856.13;5057758;28;45228;-40
2023/05/30 09:12:16;;;;;;;;;4.60;4.20;;;;;36.86;18.75;101853.84;5057094;28;46079;-41
2023/05/30 09:14:41;;;;;;;;;4.00;2.25;;;;;36.34;19.42;101850.84;5057035;28;45440;-41
2023/05/30 09:17:07;;;;;;;;;3.00;2.50;;;;;36.15;19.86;101855.47;5057350;28;45410;-42
2023/05/30 09:19:34;;;;;;;;;4.00;3.20;;;;;36.12;19.73;101845.00;5057315;28;45546;-42
2023/05/30 09:22:00;;;;;;;;;5.40;3.20;;;;;36.16;19.80;101851.59;5057104;28;45398;-44
2023/05/30 09:25:00;;;;;;;;;4.80;4.80;;;;;36.18;19.91;101846.56;5057259;28;45275;-41
2023/05/30 09:27:26;;;;;;;;;5.60;2.80;;;;;36.00;20.53;101848.16;5056925;28;45454;-44
2023/05/30 09:29:51;;;;;;;;;4.60;3.60;;;;;35.48;19.94;101846.88;5056803;28;45427;-42
2023/05/30 09:32:17;;;;;;;;;4.75;4.75;;;;;35.48;20.08;101844.09;5056724;28;45934;-43
2023/05/30 09:34:54;;;;;;;;;3.25;3.25;;;;;35.42;20.79;101851.59;5056693;28;45420;-47
2023/05/30 09:37:20;;;;;;;;;5.60;3.80;;;;;35.29;20.56;101846.72;5056641;28;45430;-44
2023/05/30 09:40:06;;;;;;;;;3.00;3.00;;;;;35.03;20.77;101853.50;5057028;28;45484;-45
2023/05/30 09:42:41;;;;;;;;;6.20;3.80;;;;;34.85;21.48;101847.47;5056691;28;46126;-42
2023/05/30 09:45:09;;;;;;;;;2.60;2.60;;;;;34.71;20.60;101846.44;5056399;28;45462;-44
2023/05/30 09:47:41;;;;;;;;;4.00;3.40;;;;;34.58;21.82;101849.78;5056704;28;45372;-46
2023/05/30 09:50:08;;;;;;;;;3.00;3.00;;;;;34.08;21.41;101846.84;5056825;28;45357;-45
2023/05/30 09:52:35;;;;;;;;;5.00;3.00;;;;;33.70;22.85;101842.69;5056158;28;46167;-42
2023/05/30 09:55:05;;;;;;;;;3.80;3.40;;;;;33.37;22.67;101821.94;5056352;28;45495;-45
2023/05/30 09:57:32;;;;;;;;;4.80;3.20;;;;;33.31;22.69;101848.69;5056464;28;45413;-42
2023/05/30 09:59:57;;;;;;;;;5.60;4.00;;;;;33.30;22.41;101836.00;5056584;28;45376;-41
2023/05/30 10:02:23;;;;;;;;;4.50;3.00;;;;;33.37;22.61;101850.34;5056601;28;46172;-40
2023/05/30 10:04:51;;;;;;;;;2.00;2.00;;;;;33.24;22.98;101845.34;5055854;28;45751;-48
2023/05/30 10:07:19;;;;;;;;;3.20;3.20;;;;;33.15;22.75;101850.56;5054580;28;45375;-42
2023/05/30 10:09:48;;;;;;;;;5.00;3.20;;;;;33.07;22.96;101837.31;5056621;28;45523;-41
2023/05/30 10:12:14;;;;;;;;;4.60;3.20;;;;;33.15;22.72;101844.22;5055876;28;46133;-40
2023/05/30 10:14:39;;;;;;;;;4.75;3.25;;;;;32.99;22.84;101846.09;5056090;28;45167;-43
2023/05/30 10:17:07;;;;;;;;;5.25;2.75;;;;;32.88;23.15;101855.44;5056097;28;45451;-45
2023/05/30 10:19:54;;;;;;;;;6.60;5.60;;;;;32.60;23.45;101838.19;5056088;28;45438;-47
2023/05/30 10:22:23;;;;;;;;;8.60;3.20;;;;;32.54;23.31;101845.63;5055929;28;45534;-44
2023/05/30 10:24:50;;;;;;;;;6.60;3.80;;;;;32.52;22.83;101841.47;5055819;28;45381;-44
2023/05/30 10:27:21;;;;;;;;;3.60;3.60;;;;;32.41;23.41;101829.59;5056102;28;45398;-44
2023/05/30 10:29:47;;;;;;;;;5.60;4.00;;;;;32.33;23.77;101843.00;5054443;28;45491;-43
2023/05/30 10:32:18;;;;;;;;;4.60;3.40;;;;;32.25;24.05;101842.41;5055603;28;45329;-49
2023/05/30 10:34:56;;;;;;;;;4.80;4.80;;;;;32.11;24.03;101849.47;5055524;28;45506;-45
2023/05/30 10:37:23;;;;;;;;;4.00;3.20;;;;;31.78;24.03;101842.28;5055715;28;45454;-45
2023/05/30 10:40:10;;;;;;;;;4.00;4.00;;;;;31.54;24.30;101842.63;5055841;28;45497;-46
2023/05/30 10:42:54;;;;;;;;;5.20;5.20;;;;;31.39;24.52;101836.13;5055451;28;47042;-43
2023/05/30 10:45:33;;;;;;;;;4.20;4.00;;;;;31.26;25.07;101843.66;5055374;28;45218;-49
2023/05/30 10:48:24;;;;;;;;;5.40;3.80;;;;;31.12;24.74;101839.69;5055785;28;45369;-41
2023/05/30 10:50:58;;;;;;;;;4.00;4.00;;;;;31.03;25.42;101836.56;5055795;28;45438;-42
2023/05/30 10:53:23;;;;;;;;;6.20;4.00;;;;;30.99;24.93;101831.84;5055244;28;45472;-41
2023/05/30 10:55:49;;;;;;;;;4.75;3.00;;;;;30.85;25.28;101823.16;5055445;28;45439;-46
2023/05/30 10:58:35;;;;;;;;;5.00;3.20;;;;;30.64;25.24;101826.72;5054275;28;45348;-44
2023/05/30 11:01:27;;;;;;;;;3.00;3.00;;;;;30.36;25.32;101812.03;5054500;28;45497;-43
2023/05/30 11:04:06;;;;;;;;;5.80;3.40;;;;;30.01;25.78;101802.19;5055327;28;46394;-47
2023/05/30 11:06:36;;;;;;;;;5.00;4.00;;;;;29.73;26.74;101814.06;5055439;28;45337;-41
2023/05/30 11:09:11;;;;;;;;;5.00;3.20;;;;;29.38;26.37;101805.22;5055275;28;45376;-44
2023/05/30 11:11:44;;;;;;;;;4.00;3.60;;;;;29.06;27.28;101800.22;5055781;28;45308;-45
2023/05/30 11:14:11;;;;;;;;;3.20;2.60;;;;;28.76;27.78;101806.72;5055221;28;45434;-45
2023/05/30 11:16:56;;;;;;;;;5.00;5.00;;;;;28.33;27.71;101801.66;5055161;28;45458;-44
2023/05/30 11:19:35;;;;;;;;;5.40;3.20;;;;;28.05;28.27;101803.19;5059046;28;45375;-43
2023/05/30 11:22:17;;;;;;;;;5.00;4.60;;;;;27.82;28.32;101804.03;5059253;28;45392;-48
2023/05/30 11:24:45;;;;;;;;;2.60;2.40;;;;;27.66;28.89;101798.38;5058717;28;46041;-41
2023/05/30 11:27:13;;;;;;;;;1.80;1.80;;;;;27.52;29.13;101801.34;5058476;28;46411;-46